createdAt,value
2022-08-07T00:00:03.115Z,1007.28
2022-08-07T00:00:59.561Z,1007.29
2022-08-07T00:02:39.924Z,1007.29
2022-08-07T00:03:00.168Z,1007.31
2022-08-07T00:03:59.149Z,1007.30
2022-08-07T00:04:59.185Z,1007.31
2022-08-07T00:05:59.151Z,1007.33
2022-08-07T00:07:01.508Z,1007.34
2022-08-07T00:08:02.161Z,1007.32
2022-08-07T00:08:59.116Z,1007.33
2022-08-07T00:10:25.525Z,1007.32
2022-08-07T00:11:00.085Z,1007.32
2022-08-07T00:11:59.098Z,1007.30
2022-08-07T00:13:01.139Z,1007.28
2022-08-07T00:13:59.395Z,1007.31
2022-08-07T00:14:59.028Z,1007.29
2022-08-07T00:15:59.014Z,1007.30
2022-08-07T00:16:59.007Z,1007.31
2022-08-07T00:17:58.994Z,1007.32
2022-08-07T00:18:59.003Z,1007.33
2022-08-07T00:20:00.200Z,1007.32
2022-08-07T00:21:01.846Z,1007.28
2022-08-07T00:22:01.898Z,1007.26
2022-08-07T00:22:58.938Z,1007.30
2022-08-07T00:23:58.946Z,1007.28
2022-08-07T00:24:58.913Z,1007.26
2022-08-07T00:26:06.886Z,1007.25
2022-08-07T00:27:07.610Z,1007.25
2022-08-07T00:27:59.879Z,1007.20
2022-08-07T00:28:58.873Z,1007.22
2022-08-07T00:29:58.858Z,1007.21
2022-08-07T00:30:58.872Z,1007.18
2022-08-07T00:31:58.838Z,1007.20
2022-08-07T00:32:58.832Z,1007.22
2022-08-07T00:33:58.813Z,1007.16
2022-08-07T00:34:58.803Z,1007.19
2022-08-07T00:35:58.821Z,1007.19
2022-08-07T00:36:58.779Z,1007.23
2022-08-07T00:37:58.772Z,1007.23
2022-08-07T00:38:58.802Z,1007.23
2022-08-07T00:39:58.782Z,1007.23
2022-08-07T00:40:58.738Z,1007.26
2022-08-07T00:42:01.827Z,1007.22
2022-08-07T00:42:59.711Z,1007.25
2022-08-07T00:44:02.666Z,1007.21
2022-08-07T00:44:58.693Z,1007.26
2022-08-07T00:45:58.702Z,1007.22
2022-08-07T00:46:59.688Z,1007.23
2022-08-07T00:48:08.187Z,1007.22
2022-08-07T00:48:59.651Z,1007.17
2022-08-07T00:50:19.097Z,1007.19
2022-08-07T00:50:59.646Z,1007.19
2022-08-07T00:51:58.914Z,1007.16
2022-08-07T00:52:58.609Z,1007.18
2022-08-07T00:53:58.592Z,1007.17
2022-08-07T00:54:58.601Z,1007.17
2022-08-07T00:56:02.599Z,1007.17
2022-08-07T00:56:58.583Z,1007.18
2022-08-07T00:57:58.546Z,1007.18
2022-08-07T00:58:58.535Z,1007.16
2022-08-07T00:59:58.546Z,1007.13
2022-08-07T01:00:58.760Z,1007.15
2022-08-07T01:01:58.541Z,1007.15
2022-08-07T01:02:58.491Z,1007.12
2022-08-07T01:04:00.118Z,1007.11
2022-08-07T01:04:59.237Z,1007.10
2022-08-07T01:05:58.478Z,1007.12
2022-08-07T01:06:58.451Z,1007.09
2022-08-07T01:07:58.435Z,1007.08
2022-08-07T01:09:01.018Z,1007.04
2022-08-07T01:10:06.350Z,1007.03
2022-08-07T01:11:00.747Z,1007.02
2022-08-07T01:12:08.934Z,1007.01
2022-08-07T01:12:59.376Z,1007.00
2022-08-07T01:13:58.371Z,1006.98
2022-08-07T01:15:01.063Z,1006.99
2022-08-07T01:16:01.214Z,1006.93
2022-08-07T01:16:59.337Z,1006.96
2022-08-07T01:17:58.343Z,1006.98
2022-08-07T01:18:58.313Z,1006.98
2022-08-07T01:19:58.302Z,1006.97
2022-08-07T01:20:59.509Z,1006.98
2022-08-07T01:21:58.277Z,1006.95
2022-08-07T01:23:09.041Z,1006.97
2022-08-07T01:23:59.257Z,1006.95
2022-08-07T01:24:58.248Z,1006.95
2022-08-07T01:25:58.256Z,1006.92
2022-08-07T01:26:58.282Z,1006.91
2022-08-07T01:27:58.213Z,1007.02
2022-08-07T01:28:58.202Z,1006.99
2022-08-07T01:29:58.211Z,1007.02
2022-08-07T01:30:58.180Z,1007.04
2022-08-07T01:31:59.300Z,1007.02
2022-08-07T01:32:58.290Z,1007.03
2022-08-07T01:33:58.147Z,1007.05
2022-08-07T01:34:58.157Z,1007.03
2022-08-07T01:36:05.886Z,1006.98
2022-08-07T01:36:59.112Z,1007.00
2022-08-07T01:37:58.097Z,1006.96
2022-08-07T01:38:58.150Z,1006.94
2022-08-07T01:39:58.144Z,1006.97
2022-08-07T01:40:58.071Z,1006.94
2022-08-07T01:42:07.187Z,1006.96
2022-08-07T01:42:59.281Z,1006.98
2022-08-07T01:43:58.035Z,1006.97
2022-08-07T01:44:58.024Z,1006.98
2022-08-07T01:45:58.715Z,1006.97
2022-08-07T01:46:58.001Z,1006.97
2022-08-07T01:48:20.386Z,1006.95
2022-08-07T01:48:59.856Z,1006.96
2022-08-07T01:49:57.965Z,1006.97
2022-08-07T01:50:57.957Z,1006.96
2022-08-07T01:52:02.399Z,1007.00
2022-08-07T01:52:58.956Z,1006.94
2022-08-07T01:54:09.534Z,1007.00
2022-08-07T01:54:59.052Z,1006.98
2022-08-07T01:55:57.897Z,1007.00
2022-08-07T01:56:57.912Z,1007.01
2022-08-07T01:58:06.112Z,1007.00
2022-08-07T01:58:58.869Z,1007.01
2022-08-07T01:59:57.874Z,1006.97
2022-08-07T02:00:58.017Z,1007.00
2022-08-07T02:02:04.175Z,1006.97
2022-08-07T02:03:19.381Z,1006.99
2022-08-07T02:03:58.855Z,1006.94
2022-08-07T02:04:57.828Z,1006.96
2022-08-07T02:05:59.815Z,1006.99
2022-08-07T02:06:57.778Z,1006.95
2022-08-07T02:07:57.765Z,1007.01
2022-08-07T02:08:57.756Z,1006.99
2022-08-07T02:09:58.777Z,1007.01
2022-08-07T02:10:58.317Z,1006.99
2022-08-07T02:12:04.895Z,1006.99
2022-08-07T02:12:59.645Z,1006.98
2022-08-07T02:14:02.562Z,1007.00
2022-08-07T02:14:58.688Z,1007.00
2022-08-07T02:15:57.679Z,1007.02
2022-08-07T02:16:57.668Z,1006.99
2022-08-07T02:17:57.677Z,1007.01
2022-08-07T02:18:57.645Z,1006.98
2022-08-07T02:20:07.708Z,1006.98
2022-08-07T02:20:58.618Z,1006.96
2022-08-07T02:21:58.535Z,1006.94
2022-08-07T02:22:59.536Z,1006.97
2022-08-07T02:23:57.610Z,1006.93
2022-08-07T02:24:57.579Z,1006.90
2022-08-07T02:26:26.561Z,1006.96
2022-08-07T02:26:58.560Z,1006.93
2022-08-07T02:27:57.542Z,1006.93
2022-08-07T02:28:57.552Z,1006.95
2022-08-07T02:29:57.518Z,1006.95
2022-08-07T02:30:57.538Z,1006.96
2022-08-07T02:31:57.494Z,1006.95
2022-08-07T02:33:00.605Z,1006.94
2022-08-07T02:34:04.103Z,1006.93
2022-08-07T02:34:58.470Z,1006.94
2022-08-07T02:36:27.097Z,1006.85
2022-08-07T02:36:59.296Z,1006.93
2022-08-07T02:37:57.451Z,1006.90
2022-08-07T02:38:57.695Z,1006.85
2022-08-07T02:40:12.138Z,1006.85
2022-08-07T02:40:58.486Z,1006.79
2022-08-07T02:41:57.391Z,1006.83
2022-08-07T02:42:57.376Z,1006.83
2022-08-07T02:43:57.385Z,1006.85
2022-08-07T02:44:58.431Z,1006.86
2022-08-07T02:46:00.982Z,1006.84
2022-08-07T02:46:58.356Z,1006.92
2022-08-07T02:47:57.322Z,1006.86
2022-08-07T02:48:57.308Z,1006.91
2022-08-07T02:49:59.783Z,1006.93
2022-08-07T02:50:57.288Z,1006.87
2022-08-07T02:51:57.299Z,1006.91
2022-08-07T02:53:03.319Z,1006.90
2022-08-07T02:53:58.253Z,1006.90
2022-08-07T02:54:57.263Z,1006.90
2022-08-07T02:56:02.451Z,1006.91
2022-08-07T02:56:58.219Z,1006.86
2022-08-07T02:57:57.215Z,1006.88
2022-08-07T02:58:57.198Z,1006.88
2022-08-07T03:00:01.325Z,1006.92
2022-08-07T03:00:58.252Z,1006.91
2022-08-07T03:01:57.655Z,1006.96
2022-08-07T03:02:57.151Z,1006.99
2022-08-07T03:03:57.140Z,1006.97
2022-08-07T03:04:58.149Z,1006.98
2022-08-07T03:05:57.143Z,1006.97
2022-08-07T03:06:57.110Z,1006.93
2022-08-07T03:08:07.562Z,1006.95
2022-08-07T03:08:58.087Z,1006.96
2022-08-07T03:09:57.079Z,1006.97
2022-08-07T03:10:57.089Z,1006.94
2022-08-07T03:11:57.762Z,1006.96
2022-08-07T03:12:58.041Z,1006.97
2022-08-07T03:13:57.509Z,1006.98
2022-08-07T03:14:57.031Z,1006.98
2022-08-07T03:15:58.669Z,1007.00
2022-08-07T03:16:56.997Z,1006.97
2022-08-07T03:17:56.988Z,1006.98
2022-08-07T03:18:56.983Z,1006.94
2022-08-07T03:19:56.968Z,1006.99
2022-08-07T03:20:56.962Z,1006.97
2022-08-07T03:21:57.246Z,1006.98
2022-08-07T03:22:56.930Z,1006.95
2022-08-07T03:24:20.229Z,1006.96
2022-08-07T03:24:57.910Z,1006.96
2022-08-07T03:25:59.789Z,1006.92
2022-08-07T03:26:58.252Z,1006.94
2022-08-07T03:27:59.306Z,1006.96
2022-08-07T03:28:57.865Z,1006.91
2022-08-07T03:29:56.858Z,1006.93
2022-08-07T03:30:56.842Z,1006.94
2022-08-07T03:31:56.854Z,1006.91
2022-08-07T03:32:59.149Z,1006.90
2022-08-07T03:33:56.811Z,1006.87
2022-08-07T03:35:17.113Z,1006.92
2022-08-07T03:35:57.791Z,1006.92
2022-08-07T03:36:57.420Z,1006.89
2022-08-07T03:37:56.765Z,1006.91
2022-08-07T03:38:56.784Z,1006.94
2022-08-07T03:40:07.367Z,1006.90
2022-08-07T03:40:57.959Z,1006.93
2022-08-07T03:41:56.743Z,1006.92
2022-08-07T03:42:56.738Z,1006.96
2022-08-07T03:43:57.265Z,1006.95
2022-08-07T03:44:57.774Z,1006.94
2022-08-07T03:45:56.676Z,1006.92
2022-08-07T03:47:12.986Z,1006.90
2022-08-07T03:47:57.676Z,1006.89
2022-08-07T03:49:02.663Z,1006.86
2022-08-07T03:49:57.630Z,1006.87
2022-08-07T03:50:57.882Z,1006.88
2022-08-07T03:52:01.920Z,1006.82
2022-08-07T03:52:57.598Z,1006.89
2022-08-07T03:54:32.708Z,1006.87
2022-08-07T03:55:06.247Z,1006.90
2022-08-07T03:56:04.283Z,1006.87
2022-08-07T03:57:03.631Z,1006.88
2022-08-07T03:58:34.396Z,1006.87
2022-08-07T03:59:08.829Z,1006.87
2022-08-07T04:00:02.823Z,1006.89
2022-08-07T04:01:00.394Z,1006.92
2022-08-07T04:01:56.547Z,1006.91
2022-08-07T04:02:56.731Z,1006.94
2022-08-07T04:03:56.477Z,1006.91
2022-08-07T04:04:56.495Z,1006.96
2022-08-07T04:05:58.779Z,1006.98
2022-08-07T04:06:56.440Z,1006.98
2022-08-07T04:07:56.455Z,1006.97
2022-08-07T04:08:56.420Z,1007.00
2022-08-07T04:09:56.434Z,1006.96
2022-08-07T04:12:21.230Z,1006.96
2022-08-07T04:12:25.500Z,1006.94
2022-08-07T04:12:57.399Z,1006.93
2022-08-07T04:14:10.878Z,1006.97
2022-08-07T04:14:57.351Z,1007.01
2022-08-07T04:15:56.346Z,1007.02
2022-08-07T04:16:58.499Z,1007.01
2022-08-07T04:18:56.470Z,1007.02
2022-08-07T04:19:01.505Z,1007.02
2022-08-07T04:19:56.322Z,1007.01
2022-08-07T04:20:56.287Z,1007.02
2022-08-07T04:21:59.433Z,1007.00
2022-08-07T04:23:01.373Z,1007.00
2022-08-07T04:24:07.511Z,1006.97
2022-08-07T04:24:58.097Z,1007.01
2022-08-07T04:25:56.235Z,1006.98
2022-08-07T04:26:56.249Z,1007.00
2022-08-07T04:27:58.992Z,1006.94
2022-08-07T04:28:56.198Z,1006.94
2022-08-07T04:30:01.433Z,1006.95
2022-08-07T04:30:58.777Z,1006.98
2022-08-07T04:32:03.084Z,1006.99
2022-08-07T04:32:58.055Z,1006.96
2022-08-07T04:33:56.646Z,1006.95
2022-08-07T04:34:56.159Z,1006.91
2022-08-07T04:35:56.122Z,1006.90
2022-08-07T04:36:56.109Z,1006.94
2022-08-07T04:38:06.378Z,1006.95
2022-08-07T04:38:57.242Z,1006.96
2022-08-07T04:39:56.097Z,1006.96
2022-08-07T04:40:56.481Z,1006.99
2022-08-07T04:41:56.081Z,1006.98
2022-08-07T04:42:56.042Z,1007.05
2022-08-07T04:44:12.819Z,1007.07
2022-08-07T04:45:02.967Z,1007.02
2022-08-07T04:46:01.703Z,1007.03
2022-08-07T04:47:04.379Z,1007.02
2022-08-07T04:48:04.036Z,1007.00
2022-08-07T04:48:56.978Z,1006.96
2022-08-07T04:50:03.888Z,1007.01
2022-08-07T04:50:56.950Z,1007.00
2022-08-07T04:51:55.962Z,1007.05
2022-08-07T04:52:55.931Z,1007.03
2022-08-07T04:54:06.485Z,1007.00
2022-08-07T04:54:58.097Z,1007.04
2022-08-07T04:58:09.900Z,1007.07
2022-08-07T04:58:11.699Z,1007.04
2022-08-07T04:58:16.822Z,1007.03
2022-08-07T05:00:11.678Z,1007.05
2022-08-07T05:00:56.927Z,1007.01
2022-08-07T05:01:55.831Z,1007.06
2022-08-07T05:02:56.916Z,1006.97
2022-08-07T05:04:06.504Z,1006.99
2022-08-07T05:04:56.796Z,1007.00
2022-08-07T05:05:57.583Z,1007.05
2022-08-07T05:06:55.774Z,1007.01
2022-08-07T05:07:55.767Z,1007.03
2022-08-07T05:09:01.458Z,1007.00
2022-08-07T05:09:56.740Z,1007.01
2022-08-07T05:10:58.604Z,1007.01
2022-08-07T05:12:02.361Z,1006.99
2022-08-07T05:13:01.428Z,1006.98
2022-08-07T05:14:53.336Z,1006.97
2022-08-07T05:15:04.363Z,1006.99
2022-08-07T05:15:56.676Z,1007.01
2022-08-07T05:16:55.692Z,1007.00
2022-08-07T05:17:55.674Z,1007.02
2022-08-07T05:18:55.640Z,1007.05
2022-08-07T05:19:55.651Z,1007.04
2022-08-07T05:20:55.616Z,1007.07
2022-08-07T05:21:59.563Z,1007.08
2022-08-07T05:22:56.593Z,1007.05
2022-08-07T05:23:55.587Z,1007.04
2022-08-07T05:24:55.571Z,1007.06
2022-08-07T05:26:15.487Z,1007.04
2022-08-07T05:26:56.572Z,1007.06
2022-08-07T05:28:16.324Z,1007.08
2022-08-07T05:28:56.547Z,1007.08
2022-08-07T05:29:55.517Z,1007.04
2022-08-07T05:30:55.502Z,1007.08
2022-08-07T05:31:55.495Z,1007.06
2022-08-07T05:32:55.503Z,1007.09
2022-08-07T05:34:01.266Z,1007.08
2022-08-07T05:34:56.461Z,1007.10
2022-08-07T05:35:55.475Z,1007.13
2022-08-07T05:36:55.439Z,1007.14
2022-08-07T05:38:08.637Z,1007.09
2022-08-07T05:39:00.058Z,1007.11
2022-08-07T05:40:14.398Z,1007.10
2022-08-07T05:40:56.442Z,1007.12
2022-08-07T05:42:02.290Z,1007.11
2022-08-07T05:42:56.613Z,1007.12
2022-08-07T05:44:08.173Z,1007.12
2022-08-07T05:45:14.571Z,1007.12
2022-08-07T05:45:56.493Z,1007.15
2022-08-07T05:46:55.330Z,1007.17
2022-08-07T05:48:01.806Z,1007.13
2022-08-07T05:48:58.485Z,1007.11
2022-08-07T05:49:55.317Z,1007.14
2022-08-07T05:50:55.305Z,1007.15
2022-08-07T05:51:55.290Z,1007.16
2022-08-07T05:52:55.260Z,1007.22
2022-08-07T05:54:12.678Z,1007.29
2022-08-07T05:54:58.939Z,1007.32
2022-08-07T05:56:03.478Z,1007.28
2022-08-07T05:56:56.214Z,1007.32
2022-08-07T05:57:55.206Z,1007.30
2022-08-07T05:58:55.209Z,1007.28
2022-08-07T05:59:57.450Z,1007.29
2022-08-07T06:00:55.195Z,1007.28
2022-08-07T06:01:55.175Z,1007.28
2022-08-07T06:02:55.150Z,1007.31
2022-08-07T06:03:58.667Z,1007.29
2022-08-07T06:04:56.128Z,1007.24
2022-08-07T06:05:56.601Z,1007.30
2022-08-07T06:06:56.801Z,1007.31
2022-08-07T06:08:14.948Z,1007.26
2022-08-07T06:08:56.079Z,1007.26
2022-08-07T06:10:05.566Z,1007.27
2022-08-07T06:10:56.058Z,1007.26
2022-08-07T06:11:55.048Z,1007.27
2022-08-07T06:12:55.057Z,1007.22
2022-08-07T06:14:11.796Z,1007.22
2022-08-07T06:14:58.697Z,1007.19
2022-08-07T06:15:56.009Z,1007.23
2022-08-07T06:16:55.811Z,1007.23
2022-08-07T06:17:56.073Z,1007.25
2022-08-07T06:18:55.784Z,1007.30
2022-08-07T06:20:03.364Z,1007.35
2022-08-07T06:22:11.911Z,1007.31
2022-08-07T06:22:15.026Z,1007.32
2022-08-07T06:23:24.582Z,1007.35
2022-08-07T06:24:38.780Z,1007.33
2022-08-07T06:25:00.983Z,1007.32
2022-08-07T06:25:57.045Z,1007.31
2022-08-07T06:26:54.879Z,1007.31
2022-08-07T06:28:01.419Z,1007.34
2022-08-07T06:28:55.857Z,1007.33
2022-08-07T06:29:54.846Z,1007.31
2022-08-07T06:30:54.858Z,1007.31
2022-08-07T06:31:54.828Z,1007.32
2022-08-07T06:32:54.814Z,1007.30
2022-08-07T06:33:54.808Z,1007.28
2022-08-07T06:34:55.102Z,1007.27
2022-08-07T06:36:11.955Z,1007.25
2022-08-07T06:36:55.767Z,1007.24
2022-08-07T06:37:54.758Z,1007.24
2022-08-07T06:38:59.415Z,1007.22
2022-08-07T06:40:16.941Z,1007.20
2022-08-07T06:40:55.817Z,1007.15
2022-08-07T06:42:00.737Z,1007.17
2022-08-07T06:42:55.704Z,1007.16
2022-08-07T06:44:01.427Z,1007.12
2022-08-07T06:44:55.682Z,1007.13
2022-08-07T06:45:59.905Z,1007.14
2022-08-07T06:47:10.315Z,1007.12
2022-08-07T06:47:59.033Z,1007.17
2022-08-07T06:48:54.634Z,1007.11
2022-08-07T06:49:58.750Z,1007.13
2022-08-07T06:50:54.632Z,1007.18
2022-08-07T06:51:59.223Z,1007.14
2022-08-07T06:52:55.835Z,1007.15
2022-08-07T06:55:27.397Z,1007.12
2022-08-07T06:55:34.502Z,1007.10
2022-08-07T06:56:01.260Z,1007.05
2022-08-07T06:56:55.549Z,1007.05
2022-08-07T06:57:57.471Z,1007.02
2022-08-07T07:00:11.364Z,1007.07
2022-08-07T07:00:13.311Z,1007.05
2022-08-07T07:00:55.518Z,1007.04
2022-08-07T07:01:54.584Z,1007.06
2022-08-07T07:02:58.329Z,1007.01
2022-08-07T07:03:59.793Z,1007.04
2022-08-07T07:04:55.457Z,1007.00
2022-08-07T07:06:05.453Z,1006.98
2022-08-07T07:07:00.245Z,1006.98
2022-08-07T07:07:59.402Z,1007.02
2022-08-07T07:08:56.826Z,1007.01
2022-08-07T07:09:54.401Z,1007.06
2022-08-07T07:10:54.886Z,1007.05
2022-08-07T07:12:09.713Z,1007.06
2022-08-07T07:12:55.421Z,1007.06
2022-08-07T07:13:57.409Z,1007.09
2022-08-07T07:14:54.367Z,1007.06
2022-08-07T07:15:54.335Z,1007.06
2022-08-07T07:16:54.326Z,1007.04
2022-08-07T07:17:54.335Z,1007.06
2022-08-07T07:18:54.304Z,1007.06
2022-08-07T07:19:57.570Z,1007.05
2022-08-07T07:20:54.282Z,1007.00
2022-08-07T07:22:05.039Z,1007.03
2022-08-07T07:24:06.670Z,1007.04
2022-08-07T07:24:09.623Z,1007.06
2022-08-07T07:25:02.406Z,1007.08
2022-08-07T07:26:33.481Z,1007.04
2022-08-07T07:26:55.217Z,1007.00
2022-08-07T07:27:56.397Z,1007.02
2022-08-07T07:29:38.674Z,1006.99
2022-08-07T07:29:57.497Z,1006.94
2022-08-07T07:30:55.169Z,1007.00
2022-08-07T07:31:54.161Z,1006.97
2022-08-07T07:32:54.150Z,1006.97
2022-08-07T07:33:57.114Z,1006.97
2022-08-07T07:34:54.125Z,1006.97
2022-08-07T07:36:04.835Z,1006.96
2022-08-07T07:36:55.106Z,1007.00
2022-08-07T07:38:02.515Z,1006.97
2022-08-07T07:38:55.104Z,1006.97
2022-08-07T07:39:54.691Z,1006.96
2022-08-07T07:40:56.604Z,1006.93
2022-08-07T07:42:08.896Z,1006.92
2022-08-07T07:42:55.658Z,1006.92
2022-08-07T07:44:17.697Z,1006.93
2022-08-07T07:44:55.013Z,1006.85
2022-08-07T07:46:38.063Z,1006.88
2022-08-07T07:47:04.344Z,1006.85
2022-08-07T07:47:55.230Z,1006.87
2022-08-07T07:48:59.899Z,1006.85
2022-08-07T07:50:36.041Z,1006.83
2022-08-07T07:50:54.948Z,1006.80
2022-08-07T07:51:58.520Z,1006.78
2022-08-07T07:52:54.928Z,1006.78
2022-08-07T07:53:53.938Z,1006.82
2022-08-07T07:54:53.906Z,1006.83
2022-08-07T07:55:54.759Z,1006.81
2022-08-07T07:56:54.884Z,1006.76
2022-08-07T07:57:58.187Z,1006.74
2022-08-07T07:58:54.404Z,1006.74
2022-08-07T07:59:54.063Z,1006.71
2022-08-07T08:00:54.203Z,1006.72
2022-08-07T08:02:04.143Z,1006.68
2022-08-07T08:03:05.188Z,1006.71
2022-08-07T08:04:06.369Z,1006.72
2022-08-07T08:04:54.859Z,1006.70
2022-08-07T08:05:55.675Z,1006.70
2022-08-07T08:06:53.778Z,1006.68
2022-08-07T08:08:00.758Z,1006.67
2022-08-07T08:08:54.760Z,1006.68
2022-08-07T08:10:04.851Z,1006.66
2022-08-07T08:10:54.740Z,1006.64
2022-08-07T08:12:02.316Z,1006.62
2022-08-07T08:12:59.854Z,1006.62
2022-08-07T08:13:55.854Z,1006.59
2022-08-07T08:14:53.692Z,1006.62
2022-08-07T08:15:58.463Z,1006.60
2022-08-07T08:16:54.665Z,1006.64
2022-08-07T08:17:57.302Z,1006.58
2022-08-07T08:18:54.667Z,1006.62
2022-08-07T08:20:17.445Z,1006.60
2022-08-07T08:20:54.623Z,1006.62
2022-08-07T08:21:55.950Z,1006.63
2022-08-07T08:22:56.284Z,1006.67
2022-08-07T08:23:53.592Z,1006.60
2022-08-07T08:25:04.558Z,1006.63
2022-08-07T08:25:56.232Z,1006.61
2022-08-07T08:26:53.581Z,1006.62
2022-08-07T08:27:56.565Z,1006.63
2022-08-07T08:28:54.554Z,1006.66
2022-08-07T08:29:54.742Z,1006.60
2022-08-07T08:30:55.725Z,1006.65
2022-08-07T08:32:16.751Z,1006.63
2022-08-07T08:32:54.491Z,1006.62
2022-08-07T08:33:55.814Z,1006.60
2022-08-07T08:34:53.491Z,1006.60
2022-08-07T08:35:53.465Z,1006.55
2022-08-07T08:36:57.744Z,1006.60
2022-08-07T08:38:01.418Z,1006.57
2022-08-07T08:38:54.449Z,1006.54
2022-08-07T08:39:54.623Z,1006.56
2022-08-07T08:40:53.428Z,1006.57
2022-08-07T08:41:57.268Z,1006.57
2022-08-07T08:42:53.404Z,1006.57
2022-08-07T08:43:58.626Z,1006.55
2022-08-07T08:44:54.371Z,1006.56
2022-08-07T08:45:59.532Z,1006.51
2022-08-07T08:46:54.341Z,1006.51
2022-08-07T08:47:55.003Z,1006.53
2022-08-07T08:48:53.319Z,1006.54
2022-08-07T08:50:04.843Z,1006.54
2022-08-07T08:50:54.484Z,1006.54
2022-08-07T08:52:14.096Z,1006.55
2022-08-07T08:52:54.672Z,1006.50
2022-08-07T08:53:53.263Z,1006.51
2022-08-07T08:54:53.259Z,1006.51
2022-08-07T08:55:58.958Z,1006.46
2022-08-07T08:56:54.233Z,1006.44
2022-08-07T08:57:53.244Z,1006.47
2022-08-07T08:58:54.543Z,1006.45
2022-08-07T08:59:53.200Z,1006.45
2022-08-07T09:00:53.186Z,1006.46
2022-08-07T09:01:53.254Z,1006.47
2022-08-07T09:02:54.231Z,1006.49
2022-08-07T09:03:53.175Z,1006.41
2022-08-07T09:04:53.159Z,1006.40
2022-08-07T09:05:53.129Z,1006.33
2022-08-07T09:06:53.118Z,1006.36
2022-08-07T09:07:58.124Z,1006.36
2022-08-07T09:08:54.096Z,1006.33
2022-08-07T09:09:56.784Z,1006.32
2022-08-07T09:10:53.094Z,1006.33
2022-08-07T09:11:55.412Z,1006.29
2022-08-07T09:12:54.427Z,1006.25
2022-08-07T09:13:53.039Z,1006.27
2022-08-07T09:14:58.909Z,1006.27
2022-08-07T09:16:24.608Z,1006.31
2022-08-07T09:16:54.013Z,1006.31
2022-08-07T09:18:01.333Z,1006.26
2022-08-07T09:18:58.636Z,1006.26
2022-08-07T09:19:55.180Z,1006.22
2022-08-07T09:20:58.148Z,1006.18
2022-08-07T09:22:09.576Z,1006.23
2022-08-07T09:24:31.836Z,1006.22
2022-08-07T09:24:33.255Z,1006.16
2022-08-07T09:25:00.330Z,1006.16
2022-08-07T09:25:54.535Z,1006.06
2022-08-07T09:26:52.900Z,1006.13
2022-08-07T09:28:00.585Z,1006.06
2022-08-07T09:30:04.372Z,1006.05
2022-08-07T09:30:04.427Z,1006.07
2022-08-07T09:30:55.011Z,1006.03
2022-08-07T09:31:52.848Z,1006.06
2022-08-07T09:32:52.840Z,1005.99
2022-08-07T09:33:57.740Z,1005.98
2022-08-07T09:34:54.272Z,1005.99
2022-08-07T09:36:02.674Z,1006.03
2022-08-07T09:36:53.794Z,1006.05
2022-08-07T09:37:54.257Z,1006.00
2022-08-07T09:38:53.886Z,1006.01
2022-08-07T09:39:57.739Z,1006.04
2022-08-07T09:40:53.750Z,1006.04
2022-08-07T09:41:58.843Z,1005.96
2022-08-07T09:42:53.760Z,1005.88
2022-08-07T09:44:06.092Z,1005.95
2022-08-07T09:47:20.215Z,1005.90
2022-08-07T09:47:52.258Z,1005.84
2022-08-07T09:47:52.544Z,1005.91
2022-08-07T09:48:02.824Z,1005.88
2022-08-07T09:50:00.407Z,1005.86
2022-08-07T09:50:01.949Z,1005.95
2022-08-07T09:50:53.643Z,1005.87
2022-08-07T09:52:10.134Z,1005.89
2022-08-07T09:52:53.798Z,1005.91
2022-08-07T09:53:59.329Z,1005.94
2022-08-07T09:54:53.601Z,1005.86
2022-08-07T09:56:04.165Z,1005.89
2022-08-07T09:56:53.591Z,1005.86
2022-08-07T09:57:52.584Z,1005.84
2022-08-07T09:58:52.575Z,1005.82
2022-08-07T10:00:01.479Z,1005.77
2022-08-07T10:00:53.542Z,1005.72
2022-08-07T10:01:54.515Z,1005.78
2022-08-07T10:02:55.136Z,1005.76
2022-08-07T10:04:03.255Z,1005.78
2022-08-07T10:04:54.938Z,1005.75
2022-08-07T10:05:59.154Z,1005.75
2022-08-07T10:06:55.659Z,1005.72
2022-08-07T10:07:55.068Z,1005.72
2022-08-07T10:08:52.507Z,1005.69
2022-08-07T10:10:00.755Z,1005.67
2022-08-07T10:11:16.895Z,1005.65
2022-08-07T10:12:01.723Z,1005.56
2022-08-07T10:12:53.759Z,1005.59
2022-08-07T10:14:01.399Z,1005.59
2022-08-07T10:14:55.012Z,1005.56
2022-08-07T10:15:52.375Z,1005.50
2022-08-07T10:16:52.369Z,1005.49
2022-08-07T10:18:01.159Z,1005.51
2022-08-07T10:18:53.347Z,1005.47
2022-08-07T10:19:52.355Z,1005.45
2022-08-07T10:20:52.324Z,1005.45
2022-08-07T10:22:17.038Z,1005.46
2022-08-07T10:22:53.305Z,1005.40
2022-08-07T10:24:05.155Z,1005.52
2022-08-07T10:24:53.278Z,1005.45
2022-08-07T10:25:53.096Z,1005.42
2022-08-07T10:26:53.007Z,1005.42
2022-08-07T10:27:52.353Z,1005.42
2022-08-07T10:28:52.262Z,1005.35
2022-08-07T10:29:52.234Z,1005.47
2022-08-07T10:30:52.215Z,1005.40
2022-08-07T10:31:52.205Z,1005.38
2022-08-07T10:32:53.713Z,1005.36
2022-08-07T10:34:06.332Z,1005.41
2022-08-07T10:34:53.188Z,1005.36
2022-08-07T10:35:56.771Z,1005.36
2022-08-07T10:36:53.148Z,1005.41
2022-08-07T10:38:09.904Z,1005.42
2022-08-07T10:38:53.478Z,1005.32
2022-08-07T10:40:02.937Z,1005.35
2022-08-07T10:40:53.103Z,1005.39
2022-08-07T10:42:00.400Z,1005.33
2022-08-07T10:42:53.085Z,1005.36
2022-08-07T10:43:52.073Z,1005.36
2022-08-07T10:44:54.677Z,1005.31
2022-08-07T10:45:57.353Z,1005.29
2022-08-07T10:46:53.050Z,1005.18
2022-08-07T10:47:53.374Z,1005.19
2022-08-07T10:48:52.020Z,1005.17
2022-08-07T10:49:52.005Z,1005.16
2022-08-07T10:50:52.021Z,1005.09
2022-08-07T10:52:02.307Z,1005.11
2022-08-07T10:52:52.975Z,1005.13
2022-08-07T10:53:51.966Z,1005.11
2022-08-07T10:55:00.790Z,1005.11
2022-08-07T10:55:53.363Z,1005.12
2022-08-07T10:56:51.940Z,1005.14
2022-08-07T10:57:56.348Z,1005.14
2022-08-07T10:58:59.530Z,1005.09
2022-08-07T10:59:52.918Z,1005.09
2022-08-07T11:00:55.888Z,1005.10
2022-08-07T11:02:04.838Z,1005.08
2022-08-07T11:02:53.699Z,1005.00
2022-08-07T11:04:01.289Z,1005.01
2022-08-07T11:04:52.869Z,1005.06
2022-08-07T11:05:51.850Z,1005.07
2022-08-07T11:06:51.831Z,1005.09
2022-08-07T11:07:59.509Z,1005.03
2022-08-07T11:08:52.830Z,1005.08
2022-08-07T11:10:07.077Z,1005.03
2022-08-07T11:10:57.919Z,1005.05
2022-08-07T11:11:52.789Z,1005.03
2022-08-07T11:13:02.133Z,1005.02
2022-08-07T11:14:43.940Z,1005.04
2022-08-07T11:15:00.344Z,1005.01
2022-08-07T11:15:54.581Z,1005.01
2022-08-07T11:16:54.770Z,1005.04
2022-08-07T11:17:53.928Z,1004.94
2022-08-07T11:18:51.747Z,1004.93
2022-08-07T11:19:51.689Z,1004.97
2022-08-07T11:20:51.695Z,1005.00
2022-08-07T11:21:51.682Z,1005.02
2022-08-07T11:22:51.652Z,1005.01
2022-08-07T11:23:51.647Z,1004.98
2022-08-07T11:24:51.923Z,1004.92
2022-08-07T11:25:51.643Z,1004.94
2022-08-07T11:26:51.609Z,1004.93
2022-08-07T11:28:02.755Z,1004.96
2022-08-07T11:28:55.242Z,1004.97
2022-08-07T11:30:10.230Z,1004.93
2022-08-07T11:30:52.566Z,1004.92
2022-08-07T11:31:51.820Z,1004.89
2022-08-07T11:32:52.826Z,1004.93
2022-08-07T11:33:59.496Z,1004.92
2022-08-07T11:34:52.525Z,1004.80
2022-08-07T11:35:59.520Z,1004.83
2022-08-07T11:36:52.501Z,1004.83
2022-08-07T11:38:08.693Z,1004.78
2022-08-07T11:38:52.477Z,1004.79
2022-08-07T11:39:59.779Z,1004.79
2022-08-07T11:40:52.474Z,1004.77
2022-08-07T11:42:00.237Z,1004.78
2022-08-07T11:42:52.457Z,1004.74
2022-08-07T11:44:11.202Z,1004.68
2022-08-07T11:44:57.817Z,1004.62
2022-08-07T11:45:53.647Z,1004.59
2022-08-07T11:46:51.413Z,1004.65
2022-08-07T11:47:56.533Z,1004.61
2022-08-07T11:49:28.582Z,1004.70
2022-08-07T11:50:30.503Z,1004.62
2022-08-07T11:50:58.018Z,1004.67
2022-08-07T11:51:52.362Z,1004.63
2022-08-07T11:52:51.339Z,1004.65
2022-08-07T11:54:01.703Z,1004.65
2022-08-07T11:54:54.905Z,1004.63
2022-08-07T11:56:25.618Z,1004.63
2022-08-07T11:56:54.066Z,1004.63
2022-08-07T11:58:00.226Z,1004.64
2022-08-07T11:58:52.264Z,1004.64
2022-08-07T12:00:10.859Z,1004.57
2022-08-07T12:01:02.120Z,1004.55
2022-08-07T12:01:59.818Z,1004.59
2022-08-07T12:02:53.518Z,1004.57
2022-08-07T12:03:51.299Z,1004.58
2022-08-07T12:04:51.200Z,1004.57
2022-08-07T12:05:51.211Z,1004.54